Time;durP1;ratioP1;P1;durP2;ratioP2;P2;SDS_P1;SDS_P2;PMS_P1;PMS_P2;Temp;Humidity;BMP_temperature;BMP_pressure;BME280_temperature;BME280_humidity;BME280_pressure;Samples;Min_cycle;Max_cycle;Signal;HPM_P1;HPM_P2
2023/12/12 00:01:30;;;;;;;;;15.00;13.00;;;;;-146.67;64.55;74454.00;5102985;27;61723;-71
2023/12/12 00:03:56;;;;;;;;;19.25;14.00;;;;;-146.67;65.07;74440.00;5103228;27;62120;-71
2023/12/12 00:06:21;;;;;;;;;14.50;13.50;;;;;-146.67;64.98;74440.00;5102991;27;62159;-71
2023/12/12 00:08:46;;;;;;;;;10.00;10.00;;;;;-146.67;65.18;74440.00;5093737;27;61739;-71
2023/12/12 00:11:12;;;;;;;;;18.75;14.25;;;;;-146.67;65.14;74436.03;5105702;27;61933;-71
2023/12/12 00:13:37;;;;;;;;;13.25;11.00;;;;;-146.67;64.96;74436.03;5123885;27;61886;-71
2023/12/12 00:16:02;;;;;;;;;15.75;13.00;;;;;-146.67;65.12;74438.03;5123508;27;61749;-71
2023/12/12 00:18:28;;;;;;;;;13.50;11.50;;;;;-146.67;65.17;74442.00;5122819;27;61852;-71
2023/12/12 00:20:54;;;;;;;;;12.25;10.25;;;;;-146.67;65.29;74442.00;5123156;27;62120;-71
2023/12/12 00:23:19;;;;;;;;;16.75;13.25;;;;;-146.67;65.32;74428.03;5123371;27;61876;-71
2023/12/12 00:25:44;;;;;;;;;13.50;13.50;;;;;-146.67;65.57;74422.03;5112178;27;62052;-71
2023/12/12 00:28:10;;;;;;;;;10.25;10.00;;;;;-146.67;65.72;74416.06;5100736;27;63354;-71
2023/12/12 00:30:35;;;;;;;;;15.50;15.50;;;;;-146.67;65.43;74418.06;5102169;27;62096;-71
2023/12/12 00:33:00;;;;;;;;;17.50;15.00;;;;;-146.67;65.65;74410.06;5103137;27;61886;-71
2023/12/12 00:35:26;;;;;;;;;13.00;13.00;;;;;-146.67;65.87;74404.09;5101345;27;61884;-71
2023/12/12 00:37:51;;;;;;;;;14.25;13.25;;;;;-146.67;65.51;74398.09;5101785;27;62292;-71
2023/12/12 00:40:17;;;;;;;;;15.50;13.75;;;;;-146.67;65.49;74396.09;5102664;27;62055;-71
2023/12/12 00:42:42;;;;;;;;;15.25;14.00;;;;;-146.67;65.42;74388.09;5101460;27;62041;-71
2023/12/12 00:45:08;;;;;;;;;16.75;13.50;;;;;-146.67;65.63;74404.09;5101330;27;62091;-71
2023/12/12 00:47:34;;;;;;;;;13.75;13.75;;;;;-146.67;65.48;74398.09;5100466;27;64940;-71
2023/12/12 00:49:59;;;;;;;;;13.50;11.00;;;;;-146.67;65.62;74394.09;5100437;27;62054;-71
2023/12/12 00:52:25;;;;;;;;;13.25;12.25;;;;;-146.67;65.92;74408.06;5082082;27;61918;-71
2023/12/12 00:54:50;;;;;;;;;16.50;14.50;;;;;-146.67;65.71;74382.13;5082387;27;62149;-71
2023/12/12 00:57:16;;;;;;;;;13.00;11.50;;;;;-146.67;65.51;74376.13;5084044;27;61826;-71
2023/12/12 00:59:41;;;;;;;;;17.00;13.25;;;;;-146.67;65.49;74376.13;5085181;28;62000;-71
2023/12/12 01:02:06;;;;;;;;;16.00;14.75;;;;;-146.67;65.48;74370.16;5085583;27;61918;-71
2023/12/12 01:04:34;;;;;;;;;12.75;9.25;;;;;-146.67;65.40;74366.16;5085442;27;61793;-71
2023/12/12 01:06:59;;;;;;;;;14.25;12.50;;;;;-146.67;65.40;74368.16;5083500;28;63737;-71
2023/12/12 01:09:24;;;;;;;;;18.75;13.75;;;;;-146.67;65.37;74362.16;5084113;27;62001;-71
2023/12/12 01:11:50;;;;;;;;;17.50;10.00;;;;;-146.67;65.54;74360.16;5085454;28;62061;-71
2023/12/12 01:14:15;;;;;;;;;7.75;7.75;;;;;-146.67;66.06;74356.16;5088698;27;61841;-71
2023/12/12 01:16:40;;;;;;;;;15.00;14.75;;;;;-146.67;65.72;74350.19;5125640;27;61962;-71
2023/12/12 01:21:41;;;;;;;;;13.75;13.00;;;;;-146.67;65.92;74362.16;2922792;22;62351;-78
2023/12/12 01:24:07;;;;;;;;;14.00;10.25;;;;;-146.67;66.04;74356.16;5064514;28;61779;-78
2023/12/12 01:26:32;;;;;;;;;18.00;14.50;;;;;-146.67;65.95;74352.19;5064251;28;62447;-78
2023/12/12 01:28:57;;;;;;;;;20.75;15.25;;;;;-146.67;66.19;74350.19;5063941;28;61988;-78
2023/12/12 01:31:23;;;;;;;;;15.75;11.50;;;;;-146.67;66.44;74350.19;5064900;28;61903;-78
2023/12/12 01:33:52;;;;;;;;;16.50;11.75;;;;;-146.67;66.37;74346.19;5065050;28;61869;-78
2023/12/12 01:36:17;;;;;;;;;17.00;12.25;;;;;-146.67;66.75;74344.19;5063894;28;61898;-78
2023/12/12 01:38:44;;;;;;;;;17.25;12.25;;;;;-146.67;66.67;74346.19;5064431;28;61619;-78
2023/12/12 01:41:09;;;;;;;;;11.00;10.75;;;;;-146.67;67.07;74350.19;5050046;28;61972;-78
2023/12/12 01:43:35;;;;;;;;;11.75;10.75;;;;;-146.67;67.43;74350.19;5044257;28;61984;-78
2023/12/12 01:46:05;;;;;;;;;13.00;12.00;;;;;-146.67;67.63;74342.19;5042538;28;63137;-78
2023/12/12 01:48:31;;;;;;;;;18.75;11.25;;;;;-146.67;67.31;74346.19;5043837;28;61904;-78
2023/12/12 01:50:57;;;;;;;;;15.00;11.50;;;;;-146.67;67.36;74342.19;5043677;28;61973;-78
2023/12/12 01:53:30;;;;;;;;;10.75;10.75;;;;;-146.67;67.13;74334.22;5061809;28;61865;-78
2023/12/12 01:55:57;;;;;;;;;13.00;10.00;;;;;-146.67;67.38;74334.22;5063722;28;62067;-78
2023/12/12 01:58:25;;;;;;;;;9.75;9.00;;;;;-146.67;67.86;74338.19;5064079;28;61702;-78
2023/12/12 02:00:51;;;;;;;;;9.00;9.00;;;;;-146.67;67.76;74336.19;5064089;28;61959;-78
2023/12/12 02:03:16;;;;;;;;;10.00;9.00;;;;;-146.67;67.94;74330.22;5064020;28;62147;-78
2023/12/12 02:05:45;;;;;;;;;9.00;9.00;;;;;-146.67;68.46;74326.22;5063762;28;62063;-78
2023/12/12 02:08:10;;;;;;;;;10.25;8.75;;;;;-146.67;68.43;74320.22;5062049;28;62134;-78
2023/12/12 02:10:35;;;;;;;;;11.50;9.50;;;;;-146.67;68.16;74318.25;5064392;28;61864;-78
2023/12/12 02:13:01;;;;;;;;;9.25;8.00;;;;;-146.67;68.43;74316.25;5064410;28;61848;-78
2023/12/12 02:15:26;;;;;;;;;8.25;8.25;;;;;-146.67;68.09;74314.25;5063106;28;61888;-78
2023/12/12 02:17:51;;;;;;;;;12.00;9.75;;;;;-146.67;68.38;74314.25;5063503;28;62126;-78
2023/12/12 02:20:17;;;;;;;;;8.25;8.25;;;;;-146.67;68.35;74310.25;5063667;28;61818;-78
2023/12/12 02:22:44;;;;;;;;;13.00;10.75;;;;;-146.67;68.18;74304.25;5063952;28;61973;-78
2023/12/12 02:25:10;;;;;;;;;10.75;8.25;;;;;-146.67;68.34;74308.25;5063249;28;61901;-78
2023/12/12 02:27:37;;;;;;;;;15.00;11.75;;;;;-146.67;68.56;74302.25;5062603;28;61756;-78
2023/12/12 02:30:04;;;;;;;;;10.75;9.75;;;;;-146.67;68.56;74300.28;5063447;28;61823;-78
2023/12/12 02:32:30;;;;;;;;;10.00;8.50;;;;;-146.67;68.32;74288.28;5062464;28;62043;-78
2023/12/12 02:34:55;;;;;;;;;10.00;8.75;;;;;-146.67;68.17;74290.28;5061797;28;63683;-78
2023/12/12 02:37:21;;;;;;;;;13.75;9.50;;;;;-146.67;68.26;74284.28;5045175;28;62043;-78
2023/12/12 02:39:46;;;;;;;;;11.25;10.75;;;;;-146.67;68.40;74286.28;5042226;28;61821;-78
2023/12/12 02:42:11;;;;;;;;;12.00;11.00;;;;;-146.67;68.33;74280.31;5043723;28;61942;-78
2023/12/12 02:44:37;;;;;;;;;12.50;11.00;;;;;-146.67;68.20;74272.31;5052859;28;61946;-78
2023/12/12 02:47:02;;;;;;;;;12.00;11.00;;;;;-146.67;68.44;74272.31;5063102;28;61862;-78
2023/12/12 02:49:27;;;;;;;;;11.75;10.00;;;;;-146.67;68.46;74264.34;5063073;28;62458;-78
2023/12/12 02:51:53;;;;;;;;;13.75;10.25;;;;;-146.67;68.45;74262.34;5064019;28;61811;-78
2023/12/12 02:54:18;;;;;;;;;9.00;9.00;;;;;-146.67;68.43;74254.34;5062588;28;61912;-78
2023/12/12 02:56:43;;;;;;;;;13.75;10.25;;;;;-146.67;68.00;74250.38;5063246;28;61781;-78
2023/12/12 02:59:09;;;;;;;;;9.00;9.00;;;;;-146.67;68.39;74256.34;5063364;28;62168;-78
2023/12/12 03:01:34;;;;;;;;;11.00;10.00;;;;;-146.67;68.59;74250.38;5061507;28;62004;-78
2023/12/12 03:03:59;;;;;;;;;18.00;10.25;;;;;-146.67;68.67;74246.38;5062826;28;61698;-78
2023/12/12 03:06:25;;;;;;;;;9.00;8.00;;;;;-146.67;68.63;74236.38;5061711;28;61773;-78
2023/12/12 03:08:50;;;;;;;;;6.25;6.00;;;;;-146.67;68.25;74240.38;5061811;28;62880;-78
2023/12/12 03:11:15;;;;;;;;;8.75;8.00;;;;;-146.67;68.59;74248.38;5063485;28;62436;-78
2023/12/12 03:13:41;;;;;;;;;8.00;6.25;;;;;-146.67;68.48;74248.38;5059369;28;62552;-78
2023/12/12 03:16:06;;;;;;;;;9.75;8.00;;;;;-146.67;68.67;74258.34;5041169;28;62517;-78
2023/12/12 03:18:32;;;;;;;;;9.00;8.00;;;;;-146.67;68.94;74258.34;5042119;28;61975;-78
2023/12/12 03:20:57;;;;;;;;;8.00;7.25;;;;;-146.67;68.92;74250.38;5050472;28;61839;-78
2023/12/12 03:23:22;;;;;;;;;10.00;9.25;;;;;-146.67;69.11;74252.34;5062409;28;62568;-78
2023/12/12 03:25:48;;;;;;;;;9.75;7.00;;;;;-146.67;69.27;74250.38;5063050;28;62034;-78
2023/12/12 03:28:13;;;;;;;;;12.00;9.00;;;;;-146.67;69.19;74240.38;5058108;28;61992;-78
2023/12/12 03:30:38;;;;;;;;;9.25;7.50;;;;;-146.67;69.16;74238.38;5041965;28;62101;-78
2023/12/12 03:33:04;;;;;;;;;3.75;3.75;;;;;-146.67;69.00;74234.38;5040917;28;63734;-78
2023/12/12 03:35:29;;;;;;;;;9.75;8.00;;;;;-146.67;68.84;74226.41;5041206;28;61860;-78
2023/12/12 03:37:54;;;;;;;;;9.50;4.00;;;;;-146.67;69.05;74226.41;5042525;28;62134;-78
2023/12/12 03:40:20;;;;;;;;;5.00;3.50;;;;;-146.67;69.00;74220.41;5042978;28;62094;-78
2023/12/12 03:42:45;;;;;;;;;4.75;4.00;;;;;-146.67;69.15;74224.41;5040475;28;63488;-78
2023/12/12 03:45:10;;;;;;;;;4.50;4.50;;;;;-146.67;69.13;74220.41;5051623;28;61984;-78
2023/12/12 03:47:36;;;;;;;;;9.00;5.25;;;;;-146.67;69.11;74208.44;5062557;28;61808;-78
2023/12/12 03:50:01;;;;;;;;;5.25;4.75;;;;;-146.67;68.84;74200.44;5062394;28;61683;-78
2023/12/12 03:52:27;;;;;;;;;5.25;5.25;;;;;-146.67;68.73;74204.44;5062179;28;61938;-78
2023/12/12 03:54:52;;;;;;;;;5.25;3.00;;;;;-146.67;68.90;74198.47;5062467;28;61941;-78
2023/12/12 03:57:17;;;;;;;;;9.00;5.00;;;;;-146.67;68.70;74196.47;5062523;28;61865;-78
2023/12/12 03:59:43;;;;;;;;;4.25;4.25;;;;;-146.67;68.66;74192.47;5041919;28;61940;-78
2023/12/12 04:02:08;;;;;;;;;7.25;5.75;;;;;-146.67;68.73;74190.47;5041792;28;62155;-78
2023/12/12 04:04:33;;;;;;;;;8.50;4.25;;;;;-146.67;68.89;74186.47;5042391;28;61848;-78
2023/12/12 04:06:59;;;;;;;;;5.00;4.00;;;;;-146.67;69.00;74186.47;5042283;28;61751;-78
2023/12/12 04:09:24;;;;;;;;;4.50;3.75;;;;;-146.67;68.87;74190.47;5042412;28;61899;-78
2023/12/12 04:11:49;;;;;;;;;5.25;3.00;;;;;-146.67;68.86;74182.50;5041622;28;63047;-78
2023/12/12 04:14:15;;;;;;;;;6.00;3.50;;;;;-146.67;68.82;74172.50;5040068;28;62058;-78
2023/12/12 04:16:40;;;;;;;;;4.75;4.75;;;;;-146.67;68.59;74178.50;5042290;28;61840;-78
2023/12/12 04:19:06;;;;;;;;;4.00;4.00;;;;;-146.67;68.64;74178.50;5042037;28;61730;-78
2023/12/12 04:21:31;;;;;;;;;3.75;3.75;;;;;-146.67;68.82;74174.50;5049106;28;62747;-78
2023/12/12 04:23:56;;;;;;;;;8.75;5.50;;;;;-146.67;68.83;74174.50;5041909;28;62202;-78
2023/12/12 04:26:22;;;;;;;;;5.25;5.00;;;;;-146.67;68.62;74178.50;5049354;28;61928;-78
2023/12/12 04:28:47;;;;;;;;;4.50;2.50;;;;;-146.67;68.73;74176.50;5051595;28;62141;-78
2023/12/12 04:31:16;;;;;;;;;4.00;4.00;;;;;-146.67;68.67;74176.50;5042378;28;61764;-78
2023/12/12 04:33:42;;;;;;;;;5.00;4.00;;;;;-146.67;68.50;74180.50;5045691;28;62122;-78
2023/12/12 04:36:08;;;;;;;;;2.75;2.75;;;;;-146.67;68.48;74178.50;5051739;28;62044;-78
2023/12/12 04:38:35;;;;;;;;;5.25;3.00;;;;;-146.67;68.40;74170.50;5065953;28;61932;-78
2023/12/12 04:41:03;;;;;;;;;6.75;4.25;;;;;-146.67;68.30;74152.53;5064888;28;62683;-78
2023/12/12 04:43:29;;;;;;;;;3.00;3.00;;;;;-146.67;68.26;74148.56;5063303;28;61988;-78
2023/12/12 04:45:55;;;;;;;;;3.75;3.75;;;;;-146.67;68.18;74140.56;5058995;28;61995;-78
2023/12/12 04:48:20;;;;;;;;;3.75;3.75;;;;;-146.67;68.09;74136.56;5048126;28;62368;-78
2023/12/12 04:50:46;;;;;;;;;3.25;3.25;;;;;-146.67;67.86;74132.56;5064658;28;61903;-78
2023/12/12 04:53:11;;;;;;;;;5.00;4.00;;;;;-146.67;68.10;74130.59;5064085;28;62073;-78
2023/12/12 04:55:36;;;;;;;;;2.50;2.50;;;;;-146.67;67.95;74126.59;5046610;28;62125;-78
2023/12/12 04:58:02;;;;;;;;;3.75;3.75;;;;;-146.67;68.08;74116.59;5044741;28;61766;-78
2023/12/12 05:00:27;;;;;;;;;3.25;3.25;;;;;-146.67;68.28;74120.59;5042855;28;63358;-78
2023/12/12 05:02:52;;;;;;;;;2.25;2.25;;;;;-146.67;68.29;74122.59;5045078;28;61864;-78
2023/12/12 05:05:18;;;;;;;;;7.25;2.25;;;;;-146.67;68.16;74126.59;5045125;28;61822;-78
2023/12/12 05:07:43;;;;;;;;;4.00;3.00;;;;;-146.67;68.59;74120.59;5043941;28;62131;-78
2023/12/12 05:10:09;;;;;;;;;4.50;4.50;;;;;-146.67;68.04;74112.63;5044159;28;61845;-78
2023/12/12 05:12:34;;;;;;;;;6.25;4.00;;;;;-146.67;68.04;74112.63;5044619;28;61831;-78
2023/12/12 05:15:00;;;;;;;;;2.50;2.50;;;;;-146.67;68.33;74120.59;5044761;28;61801;-78
2023/12/12 05:17:25;;;;;;;;;5.00;3.00;;;;;-146.67;68.30;74122.59;5044917;28;61721;-78
2023/12/12 05:19:50;;;;;;;;;4.00;4.00;;;;;-146.67;68.54;74124.59;5044162;28;61632;-78
2023/12/12 05:22:16;;;;;;;;;6.75;3.75;;;;;-146.67;68.51;74120.59;5064533;28;62188;-78
2023/12/12 05:24:41;;;;;;;;;7.00;3.00;;;;;-146.67;69.00;74122.59;5064954;28;62081;-78
2023/12/12 05:27:07;;;;;;;;;4.50;3.00;;;;;-146.67;68.64;74110.63;5064485;28;61915;-78
2023/12/12 05:29:32;;;;;;;;;4.00;4.00;;;;;-146.67;68.68;74114.63;5063724;28;61814;-78
2023/12/12 05:31:57;;;;;;;;;3.25;3.25;;;;;-146.67;68.46;74104.63;5060297;28;61940;-78
2023/12/12 05:34:23;;;;;;;;;11.50;6.25;;;;;-146.67;68.46;74102.63;5043261;28;61940;-78
2023/12/12 05:36:48;;;;;;;;;9.00;3.00;;;;;-146.67;68.40;74096.66;5056755;28;61807;-78
2023/12/12 05:39:14;;;;;;;;;8.00;4.50;;;;;-146.67;68.26;74096.66;5063612;28;61788;-78
2023/12/12 05:41:40;;;;;;;;;6.50;5.00;;;;;-146.67;68.18;74098.66;5063967;28;61995;-78
2023/12/12 05:44:07;;;;;;;;;7.50;4.75;;;;;-146.67;68.74;74104.63;5059632;28;62083;-78
2023/12/12 05:46:33;;;;;;;;;9.25;8.00;;;;;-146.67;68.90;74110.63;5041647;28;62453;-77
2023/12/12 05:48:59;;;;;;;;;10.00;5.75;;;;;-146.67;69.02;74104.63;5045988;28;61950;-78
2023/12/12 05:51:25;;;;;;;;;9.50;8.25;;;;;-146.67;68.63;74110.63;5063599;28;61720;-78
2023/12/12 05:53:50;;;;;;;;;13.50;7.00;;;;;-146.67;69.23;74104.63;5063467;28;61948;-78
2023/12/12 05:56:15;;;;;;;;;8.25;7.00;;;;;-146.67;69.30;74118.59;5063746;28;61800;-78
2023/12/12 05:58:41;;;;;;;;;11.00;9.00;;;;;-146.67;69.31;74118.59;5052305;28;62204;-78
2023/12/12 06:01:06;;;;;;;;;10.50;6.75;;;;;-146.67;69.24;74120.59;5043807;28;61846;-78
2023/12/12 06:03:32;;;;;;;;;10.75;8.50;;;;;-146.67;69.65;74120.59;5044029;28;62019;-78
2023/12/12 06:05:57;;;;;;;;;10.50;8.25;;;;;-146.67;69.74;74124.59;5059362;28;62185;-78
2023/12/12 06:08:22;;;;;;;;;12.50;9.00;;;;;-146.67;70.08;74128.59;5063191;28;62276;-78
2023/12/12 06:10:48;;;;;;;;;11.25;8.00;;;;;-146.67;70.36;74132.56;5062201;28;62259;-78
2023/12/12 06:13:14;;;;;;;;;7.50;6.75;;;;;-146.67;70.37;74122.59;5063234;28;61929;-78
2023/12/12 06:15:39;;;;;;;;;9.50;7.25;;;;;-146.67;70.54;74116.59;5063506;28;61800;-78
2023/12/12 06:18:05;;;;;;;;;10.00;8.00;;;;;-146.67;70.44;74100.63;5063170;28;61793;-78
2023/12/12 06:20:32;;;;;;;;;8.25;6.75;;;;;-146.67;70.73;74102.63;5063332;28;62043;-78
2023/12/12 06:22:57;;;;;;;;;10.50;7.00;;;;;-146.67;71.14;74106.63;5054124;28;62425;-77
2023/12/12 06:25:23;;;;;;;;;8.00;6.75;;;;;-146.67;71.02;74110.63;5047837;28;62043;-78
2023/12/12 06:27:49;;;;;;;;;6.00;5.00;;;;;-146.67;71.52;74116.59;5042941;28;61897;-77
2023/12/12 06:30:15;;;;;;;;;9.75;5.00;;;;;-146.67;71.52;74112.63;5043273;28;61748;-78
2023/12/12 06:32:41;;;;;;;;;5.50;5.50;;;;;-146.67;71.65;74112.63;5050136;28;62058;-77
2023/12/12 06:35:06;;;;;;;;;11.00;3.50;;;;;-146.67;71.66;74110.63;5058522;28;62149;-74
2023/12/12 06:37:32;;;;;;;;;5.75;4.00;;;;;-146.67;71.96;74114.63;5052982;28;62655;-75
2023/12/12 06:39:58;;;;;;;;;3.00;3.00;;;;;-146.67;72.20;74116.59;5051619;28;62028;-75
2023/12/12 06:42:23;;;;;;;;;8.00;3.50;;;;;-146.67;72.05;74116.59;5063441;28;61907;-75
2023/12/12 06:44:49;;;;;;;;;8.00;3.75;;;;;-146.67;72.10;74110.63;5062756;28;61923;-75
2023/12/12 06:47:15;;;;;;;;;4.25;4.25;;;;;-146.67;72.21;74120.59;5062352;28;62697;-75
2023/12/12 06:49:40;;;;;;;;;5.00;4.00;;;;;-146.67;72.37;74124.59;5062967;28;61841;-75
2023/12/12 06:52:05;;;;;;;;;2.00;2.00;;;;;-146.67;72.69;74122.59;5057351;28;61931;-76
2023/12/12 06:54:31;;;;;;;;;6.50;4.75;;;;;-146.67;72.34;74112.63;5050662;28;61873;-76
2023/12/12 06:56:57;;;;;;;;;3.25;3.25;;;;;-146.67;72.07;74114.63;5059454;28;64794;-75
2023/12/12 06:59:22;;;;;;;;;5.00;5.00;;;;;-146.67;72.09;74124.59;5060278;28;62630;-75
2023/12/12 07:01:47;;;;;;;;;5.00;5.00;;;;;-146.67;71.87;74128.59;5064434;28;61852;-75
2023/12/12 07:04:13;;;;;;;;;8.75;6.00;;;;;-146.67;72.17;74124.59;5075176;28;62221;-76
2023/12/12 07:06:38;;;;;;;;;8.00;5.00;;;;;-146.67;72.15;74128.59;5063087;27;61805;-75
2023/12/12 07:09:04;;;;;;;;;8.00;7.75;;;;;-146.67;72.36;74128.59;5060807;28;61796;-75
2023/12/12 07:11:30;;;;;;;;;11.00;7.50;;;;;-146.67;72.34;74134.56;5062761;28;62080;-75
2023/12/12 07:13:56;;;;;;;;;7.50;7.50;;;;;-146.67;72.00;74128.59;5062499;28;61902;-75
2023/12/12 07:16:21;;;;;;;;;7.00;6.00;;;;;-146.67;72.28;74132.56;5060500;28;63686;-75
2023/12/12 07:18:47;;;;;;;;;4.50;3.00;;;;;-146.67;72.34;74132.56;5062099;28;61925;-76
2023/12/12 07:21:15;;;;;;;;;5.50;4.75;;;;;-146.67;72.33;74124.59;5054238;28;61853;-75
2023/12/12 07:23:40;;;;;;;;;5.50;4.00;;;;;-146.67;72.13;74122.59;5048966;28;62294;-75
2023/12/12 07:26:05;;;;;;;;;6.25;4.00;;;;;-146.67;72.08;74112.63;5048628;28;62584;-75
2023/12/12 07:28:38;;;;;;;;;5.50;5.50;;;;;-146.67;71.98;74102.63;5041359;28;61761;-74
2023/12/12 07:31:04;;;;;;;;;7.00;4.75;;;;;-146.67;71.75;74114.63;5044443;28;61920;-74
2023/12/12 07:33:30;;;;;;;;;5.00;5.00;;;;;-146.67;71.85;74112.63;5062226;28;61745;-74
2023/12/12 07:35:57;;;;;;;;;6.00;4.75;;;;;-146.67;71.65;74104.63;5061543;28;62375;-74
2023/12/12 07:38:22;;;;;;;;;1.50;1.50;;;;;-146.67;71.94;74108.63;5056986;28;61840;-74
2023/12/12 07:40:47;;;;;;;;;6.50;4.00;;;;;-146.67;71.61;74096.66;5061941;28;62012;-74
2023/12/12 07:43:13;;;;;;;;;4.00;3.50;;;;;-146.67;71.49;74090.66;5041569;28;61909;-74
2023/12/12 07:45:38;;;;;;;;;4.00;4.00;;;;;-146.67;71.44;74084.66;5041253;28;63571;-74
2023/12/12 07:48:04;;;;;;;;;3.25;3.25;;;;;-146.67;71.42;74092.66;5061985;28;61893;-74
2023/12/12 07:50:29;;;;;;;;;10.00;5.50;;;;;-146.67;71.44;74084.66;5062222;28;61936;-74
2023/12/12 07:52:54;;;;;;;;;5.00;5.00;;;;;-146.67;71.37;74056.72;5062136;28;61900;-74
2023/12/12 07:55:20;;;;;;;;;3.00;3.00;;;;;-146.67;71.17;74080.69;5061447;28;62032;-74
2023/12/12 07:57:45;;;;;;;;;8.50;3.00;;;;;-146.67;71.08;74082.69;5060399;28;61687;-74
2023/12/12 08:00:12;;;;;;;;;9.25;5.50;;;;;-146.67;70.78;74064.72;5061373;28;61830;-74
2023/12/12 08:02:37;;;;;;;;;6.00;2.00;;;;;-146.67;70.57;74064.72;5062478;28;61938;-74
2023/12/12 08:05:03;;;;;;;;;5.00;2.75;;;;;-146.67;70.33;74066.69;5061247;28;61912;-74
2023/12/12 08:07:29;;;;;;;;;4.50;4.50;;;;;-146.67;70.33;74056.72;5061613;28;62145;-74
2023/12/12 08:09:54;;;;;;;;;3.25;3.00;;;;;-146.67;69.79;74062.72;5061999;28;61891;-74
2023/12/12 08:12:21;;;;;;;;;5.00;3.00;;;;;-146.67;70.29;74062.72;5062169;28;62110;-75
2023/12/12 08:14:47;;;;;;;;;6.00;4.00;;;;;-146.67;69.89;74044.75;5045372;28;61930;-75
2023/12/12 08:17:12;;;;;;;;;4.00;3.00;;;;;-146.67;69.65;74040.75;5040027;28;61849;-75
2023/12/12 08:19:38;;;;;;;;;3.25;3.00;;;;;-146.67;69.31;74044.75;5041227;28;61849;-75
2023/12/12 08:22:03;;;;;;;;;2.25;2.25;;;;;-146.67;69.16;74040.75;5058791;28;61782;-75
2023/12/12 08:24:28;;;;;;;;;3.75;3.00;;;;;-146.67;69.01;74034.75;5076439;28;63486;-75
2023/12/12 08:26:54;;;;;;;;;3.25;2.50;;;;;-146.67;69.07;74026.78;5061515;28;61845;-74
2023/12/12 08:29:19;;;;;;;;;3.00;2.00;;;;;-146.67;68.60;74024.78;5053403;28;61957;-74
2023/12/12 08:31:44;;;;;;;;;2.00;1.25;;;;;-146.67;68.66;74036.75;5049283;28;61725;-74
2023/12/12 08:34:10;;;;;;;;;4.00;1.25;;;;;-146.67;68.06;74032.75;5045635;28;61911;-74
2023/12/12 08:36:35;;;;;;;;;3.00;2.00;;;;;-146.67;68.32;74030.78;5046030;28;61720;-74
2023/12/12 08:39:01;;;;;;;;;2.50;1.25;;;;;-146.67;68.51;74022.78;5040838;28;61782;-73
2023/12/12 08:41:28;;;;;;;;;1.00;0.00;;;;;-146.67;68.49;74034.75;5041197;28;61776;-74
2023/12/12 08:43:55;;;;;;;;;1.00;1.00;;;;;-146.67;68.25;74026.78;5040959;28;61887;-74
2023/12/12 08:46:26;;;;;;;;;2.75;1.00;;;;;-146.67;68.18;74032.75;5040470;28;61865;-74
2023/12/12 08:48:56;;;;;;;;;1.25;0.25;;;;;-146.67;68.04;74026.78;5039886;28;62034;-73
2023/12/12 08:51:26;;;;;;;;;2.00;0.00;;;;;-146.67;67.62;74026.78;5041042;28;61840;-73
2023/12/12 08:53:52;;;;;;;;;5.00;1.00;;;;;-146.67;67.74;74030.78;5040658;28;61767;-74
2023/12/12 08:56:18;;;;;;;;;0.50;0.50;;;;;-146.67;67.67;74022.78;5041129;28;61994;-74
2023/12/12 08:58:46;;;;;;;;;1.00;1.00;;;;;-146.67;67.33;74012.81;5040822;28;61741;-73
2023/12/12 09:01:14;;;;;;;;;0.25;0.00;;;;;-146.67;67.26;74012.81;5041060;28;61988;-74
2023/12/12 09:03:39;;;;;;;;;2.75;1.00;;;;;-146.67;66.99;74006.81;5040411;28;62736;-73
2023/12/12 09:06:05;;;;;;;;;3.75;2.00;;;;;-146.67;66.85;74000.81;5040761;28;61935;-74
2023/12/12 09:08:30;;;;;;;;;0.25;0.25;;;;;-146.67;66.75;73998.84;5040793;28;61778;-74
2023/12/12 09:10:56;;;;;;;;;0.00;0.00;;;;;-146.67;66.61;73986.84;5041408;28;61793;-74
2023/12/12 09:13:22;;;;;;;;;1.00;1.00;;;;;-146.67;66.33;73972.88;5040234;28;61837;-74
2023/12/12 09:15:47;;;;;;;;;0.25;0.00;;;;;-146.67;65.46;73972.88;5040740;28;61749;-74
2023/12/12 09:18:13;;;;;;;;;0.00;0.00;;;;;-146.67;65.46;73972.88;5043000;28;61816;-74
2023/12/12 09:20:38;;;;;;;;;0.25;0.25;;;;;-146.67;65.59;73960.91;5050729;28;61813;-74
2023/12/12 09:23:03;;;;;;;;;0.75;0.75;;;;;-146.67;65.10;73960.91;5063822;28;62289;-74
2023/12/12 09:25:29;;;;;;;;;0.75;0.75;;;;;-146.67;64.83;73952.91;5063993;28;61819;-74
2023/12/12 09:27:54;;;;;;;;;0.00;0.00;;;;;-146.67;64.39;73944.94;5064477;28;61873;-74
2023/12/12 09:30:19;;;;;;;;;0.00;0.00;;;;;-146.67;64.33;73932.97;5062670;28;62132;-74
2023/12/12 09:32:45;;;;;;;;;0.00;0.00;;;;;-146.67;64.15;73928.97;5053181;28;62404;-74
2023/12/12 09:35:10;;;;;;;;;0.00;0.00;;;;;-146.67;63.79;73924.97;5061590;28;61835;-74
2023/12/12 09:37:36;;;;;;;;;1.00;0.00;;;;;-146.67;63.22;73918.97;5042529;28;61917;-74
2023/12/12 09:40:04;;;;;;;;;0.75;0.00;;;;;-146.67;63.60;73920.97;5046113;28;62020;-74
2023/12/12 09:42:32;;;;;;;;;1.00;1.00;;;;;-146.67;63.25;73924.97;5041854;28;64738;-74
2023/12/12 09:44:59;;;;;;;;;2.00;2.00;;;;;-146.67;63.19;73934.94;5043410;28;62141;-74
2023/12/12 09:47:27;;;;;;;;;1.00;1.00;;;;;-146.67;63.22;73922.97;5043278;28;61806;-74
2023/12/12 09:49:55;;;;;;;;;1.00;0.00;;;;;-146.67;62.60;73922.97;5043363;28;62103;-74
2023/12/12 09:52:23;;;;;;;;;1.00;1.00;;;;;-146.67;62.89;73915.00;5057943;28;64654;-74
2023/12/12 09:54:49;;;;;;;;;1.00;1.00;;;;;-146.67;62.98;73905.00;5063580;28;61945;-74
2023/12/12 09:57:21;;;;;;;;;2.00;2.00;;;;;-146.67;62.53;73895.03;5064010;28;61936;-74
2023/12/12 09:59:46;;;;;;;;;1.00;1.00;;;;;-146.67;62.39;73887.03;5070033;28;62153;-73
2023/12/12 10:02:19;;;;;;;;;0.00;0.00;;;;;-146.67;62.37;73887.03;5062706;28;62587;-73
2023/12/12 10:04:45;;;;;;;;;0.75;0.75;;;;;-146.67;61.54;73885.06;5062001;28;61816;-74
2023/12/12 10:07:14;;;;;;;;;0.50;0.50;;;;;-146.67;61.44;73885.06;5062307;28;62201;-74
2023/12/12 10:09:39;;;;;;;;;1.00;1.00;;;;;-146.67;61.69;73871.06;5064067;28;62094;-74
2023/12/12 10:12:05;;;;;;;;;0.00;0.00;;;;;-146.67;61.10;73871.06;5060766;28;62011;-73
2023/12/12 10:14:39;;;;;;;;;0.00;0.00;;;;;-146.67;61.30;73859.09;5043180;28;62226;-74
2023/12/12 10:17:05;;;;;;;;;0.00;0.00;;;;;-146.67;60.77;73845.13;5041675;28;61920;-73
2023/12/12 10:19:31;;;;;;;;;1.00;0.00;;;;;-146.67;59.92;73829.16;5043358;28;62021;-73
2023/12/12 10:22:01;;;;;;;;;0.00;0.00;;;;;-146.67;60.13;73817.19;5059775;28;61644;-73
2023/12/12 10:24:26;;;;;;;;;0.00;0.00;;;;;-146.67;59.65;73821.19;5050492;28;61836;-73
2023/12/12 10:26:52;;;;;;;;;0.00;0.00;;;;;-146.67;59.42;73815.19;5042646;28;61829;-75
2023/12/12 10:29:19;;;;;;;;;1.00;0.00;;;;;-146.67;58.98;73799.22;5043443;28;62117;-72
2023/12/12 10:31:46;;;;;;;;;2.00;0.75;;;;;-146.67;58.26;73801.22;5040791;28;64074;-73
2023/12/12 10:34:12;;;;;;;;;3.00;0.00;;;;;-146.67;57.88;73789.25;5043059;28;62076;-73
2023/12/12 10:36:38;;;;;;;;;1.25;0.00;;;;;-146.67;57.78;73773.28;5042896;28;61680;-75
2023/12/12 10:39:13;;;;;;;;;0.00;0.00;;;;;-146.67;56.66;73763.28;5043888;28;62117;-75
2023/12/12 10:41:38;;;;;;;;;1.50;1.00;;;;;-146.67;56.58;73757.31;5057020;28;61699;-75
2023/12/12 10:44:08;;;;;;;;;0.00;0.00;;;;;-146.67;56.37;73757.31;5062666;28;61824;-75
2023/12/12 10:46:37;;;;;;;;;1.50;0.25;;;;;-146.67;55.72;73745.31;5062635;28;61984;-76
2023/12/12 10:49:02;;;;;;;;;3.00;0.00;;;;;-146.67;55.33;73749.31;5062532;28;62139;-76
2023/12/12 10:51:28;;;;;;;;;1.50;0.25;;;;;-146.67;55.50;73759.28;5053801;28;62783;-76
2023/12/12 10:53:55;;;;;;;;;1.00;1.00;;;;;-146.67;55.85;73757.31;5042526;28;61898;-75
2023/12/12 10:56:21;;;;;;;;;1.00;0.00;;;;;-146.67;54.81;73763.28;5042999;28;61869;-76
2023/12/12 10:58:48;;;;;;;;;0.00;0.00;;;;;-146.67;55.25;73767.28;5053640;28;61828;-76
2023/12/12 11:01:15;;;;;;;;;0.00;0.00;;;;;-146.67;55.53;73763.28;5061521;28;61888;-73
2023/12/12 11:03:41;;;;;;;;;1.00;0.00;;;;;-146.67;55.28;73763.28;5062564;28;61865;-73
2023/12/12 11:06:08;;;;;;;;;1.00;0.00;;;;;-146.67;55.08;73765.28;5062063;28;61922;-75
2023/12/12 11:08:34;;;;;;;;;1.50;0.50;;;;;-146.67;55.19;73783.25;5062663;28;62007;-76
2023/12/12 11:11:02;;;;;;;;;3.75;0.75;;;;;-146.67;55.56;73795.22;5061578;28;62787;-76